Center Moriches, NY (11934)

5:46 AM EDT on August 28, 2015 (GMT -0400)
East Moriches North | | Change Station
CLOSE
Current Station
Personal Weather Station
Location: East Moriches, NY
Elevation: 62 ft
Nearby Weather Stations

Elev 62 ft 40.81 °N, 72.76 °W | Updated 10 seconds ago

Mostly Cloudy
Mostly Cloudy
58.8 °F
Feels Like 58.8 °F
N
0.0
Wind Variable Wind from WNW
Gusts 0.0 mph

Today
High -- | Low -- °F
--% Chance of Precip.
Yesterday
High -- | Low -- °F
Precip. -- in
6:13 AM 7:30 PM
Waxing Gibbous, 97% visible
Pressure 30.12 in
Visibility 10.0 miles
Clouds Overcast 5500 ft
Dew Point 59 °F
Humidity 99%
Rainfall 0.00 in
Snow Depth Not available.
UV 0.0 out of 12
Pollen 10.00 out of 12
Air Quality Not available.
Flu Activity Not available.
METAR KHWV 280856Z AUTO 36004KT 10SM OVC055 18/14 A3012 RMK AO2 SLP198 T01780139 53002 TSNO
Pressure 30.12 in
Visibility 10.0 miles
Clouds Overcast 5500 ft
Dew Point 59 °F
Humidity 99%
Rainfall 0.00 in
Snow Depth Not available.
UV 0.0 out of 12
Pollen 10.00 out of 12
Air Quality Not available.
Flu Activity Not available.
METAR KHWV 280856Z AUTO 36004KT 10SM OVC055 18/14 A3012 RMK AO2 SLP198 T01780139 53002 TSNO

10-Day Weather Forecast

×

Almanac

Astronomy

Aug. 28, 2015 Rise Set
Actual Time
Civil Twilight
Nautical Twilight
Astronomical Twilight
Moon
Length of Visible Light
Length of Day
Tomorrow will be .
, % of the Moon is Illuminated

Today's Extremes

State Highs State Lows

Community

WunderPhotos

Upload Photos

1,850,352 photos uploaded!

WunderBlogs® & News

Nearby

Air Quality

  Air Quality AQ Index Pollutant
Not available.

Snow Depth

Station Depth Elevation

Earthquake Activity

City Distance Mag. Time & Date
Minimum magnitude displayed is 2.5.

Coastal Water Temperatures

Place Temperature

Stations

Nearby Weather Stations

Station Location Temp. Windchill Dew Point Humidity Wind Precip. Elev Updated Type